sensor_id;sensor_type;location;lat;lon;timestamp;pressure;altitude;pressure_sealevel;temperature;humidity
3132;BME280;62090;52.330;9.104;2023-06-14T00:00:02;101071.09;;;19.35;51.82
3132;BME280;62090;52.330;9.104;2023-06-14T00:02:35;101029.97;;;18.97;51.99
3132;BME280;62090;52.330;9.104;2023-06-14T00:05:05;101057.47;;;19.04;52.32
3132;BME280;62090;52.330;9.104;2023-06-14T00:07:36;101060.13;;;18.90;53.02
3132;BME280;62090;52.330;9.104;2023-06-14T00:10:10;101069.56;;;18.93;53.17
3132;BME280;62090;52.330;9.104;2023-06-14T00:12:41;101072.16;;;18.97;52.57
3132;BME280;62090;52.330;9.104;2023-06-14T00:15:13;101043.81;;;18.78;53.32
3132;BME280;62090;52.330;9.104;2023-06-14T00:17:43;101062.69;;;18.93;52.43
3132;BME280;62090;52.330;9.104;2023-06-14T00:20:14;101067.84;;;18.98;52.88
3132;BME280;62090;52.330;9.104;2023-06-14T00:22:44;101052.41;;;18.86;52.63
3132;BME280;62090;52.330;9.104;2023-06-14T00:25:14;101076.47;;;18.91;53.01
3132;BME280;62090;52.330;9.104;2023-06-14T00:27:55;101043.84;;;18.75;52.55
3132;BME280;62090;52.330;9.104;2023-06-14T00:30:27;101068.81;;;18.76;53.35
3132;BME280;62090;52.330;9.104;2023-06-14T00:32:58;101079.16;;;18.65;53.19
3132;BME280;62090;52.330;9.104;2023-06-14T00:35:28;101060.22;;;18.63;53.52
3132;BME280;62090;52.330;9.104;2023-06-14T00:37:57;101056.81;;;18.50;53.50
3132;BME280;62090;52.330;9.104;2023-06-14T00:40:28;101077.47;;;18.61;53.94
3132;BME280;62090;52.330;9.104;2023-06-14T00:42:58;101086.94;;;18.61;53.82
3132;BME280;62090;52.330;9.104;2023-06-14T00:45:30;101089.50;;;18.64;53.73
3132;BME280;62090;52.330;9.104;2023-06-14T00:48:04;101065.41;;;18.52;53.81
3132;BME280;62090;52.330;9.104;2023-06-14T00:50:36;101077.44;;;18.53;54.27
3132;BME280;62090;52.330;9.104;2023-06-14T00:53:08;101078.31;;;18.46;54.97
3132;BME280;62090;52.330;9.104;2023-06-14T00:55:38;101088.63;;;18.52;54.02
3132;BME280;62090;52.330;9.104;2023-06-14T00:58:08;101074.91;;;18.44;54.14
3132;BME280;62090;52.330;9.104;2023-06-14T01:00:40;101015.63;;;18.05;54.79
3132;BME280;62090;52.330;9.104;2023-06-14T01:03:11;101023.38;;;17.96;54.58
3132;BME280;62090;52.330;9.104;2023-06-14T01:05:46;101102.41;;;18.45;54.35
3132;BME280;62090;52.330;9.104;2023-06-14T01:08:23;101098.13;;;18.38;54.57
3132;BME280;62090;52.330;9.104;2023-06-14T01:11:01;101040.56;;;17.88;55.00
3132;BME280;62090;52.330;9.104;2023-06-14T01:13:33;101106.75;;;18.18;55.59
3132;BME280;62090;52.330;9.104;2023-06-14T01:16:07;101102.47;;;18.03;56.16
3132;BME280;62090;52.330;9.104;2023-06-14T01:18:37;101074.09;;;17.88;55.83
3132;BME280;62090;52.330;9.104;2023-06-14T01:21:20;101111.06;;;18.08;56.02
3132;BME280;62090;52.330;9.104;2023-06-14T01:23:53;101115.34;;;17.89;56.49
3132;BME280;62090;52.330;9.104;2023-06-14T01:26:25;101117.06;;;17.78;56.75
3132;BME280;62090;52.330;9.104;2023-06-14T01:28:59;101095.56;;;17.59;56.81
3132;BME280;62090;52.330;9.104;2023-06-14T01:31:29;101051.66;;;17.20;57.38
3132;BME280;62090;52.330;9.104;2023-06-14T01:34:07;101114.41;;;17.43;57.76
3132;BME280;62090;52.330;9.104;2023-06-14T01:36:40;100975.91;;;16.48;58.09
3132;BME280;62090;52.330;9.104;2023-06-14T01:39:14;101075.66;;;17.02;58.27
3132;BME280;62090;52.330;9.104;2023-06-14T01:41:45;101090.25;;;17.06;58.30
3132;BME280;62090;52.330;9.104;2023-06-14T01:44:18;101117.75;;;17.24;58.63
3132;BME280;62090;52.330;9.104;2023-06-14T01:46:49;101114.31;;;17.16;59.18
3132;BME280;62090;52.330;9.104;2023-06-14T01:49:22;101089.34;;;16.98;58.93
3132;BME280;62090;52.330;9.104;2023-06-14T01:51:52;101114.31;;;17.11;59.50
3132;BME280;62090;52.330;9.104;2023-06-14T01:54:25;101001.66;;;16.50;59.25
3132;BME280;62090;52.330;9.104;2023-06-14T01:56:56;101113.47;;;17.15;59.31
3132;BME280;62090;52.330;9.104;2023-06-14T01:59:26;101103.16;;;17.11;59.09
3132;BME280;62090;52.330;9.104;2023-06-14T02:01:58;101087.63;;;16.96;59.53
3132;BME280;62090;52.330;9.104;2023-06-14T02:04:28;101116.91;;;17.13;59.53
3132;BME280;62090;52.330;9.104;2023-06-14T02:06:57;101061.78;;;16.73;60.24
3132;BME280;62090;52.330;9.104;2023-06-14T02:09:30;101113.38;;;16.96;60.64
3132;BME280;62090;52.330;9.104;2023-06-14T02:12:00;101115.06;;;16.87;60.72
3132;BME280;62090;52.330;9.104;2023-06-14T02:14:30;101084.84;;;16.53;61.78
3132;BME280;62090;52.330;9.104;2023-06-14T02:17:00;101118.44;;;16.74;61.37
3132;BME280;62090;52.330;9.104;2023-06-14T02:19:30;101126.22;;;16.86;61.08
3132;BME280;62090;52.330;9.104;2023-06-14T02:22:00;101126.22;;;16.86;60.66
3132;BME280;62090;52.330;9.104;2023-06-14T02:24:32;100999.72;;;16.14;60.49
3132;BME280;62090;52.330;9.104;2023-06-14T02:27:02;101056.47;;;16.42;61.14
3132;BME280;62090;52.330;9.104;2023-06-14T02:29:33;101133.84;;;16.70;61.60
3132;BME280;62090;52.330;9.104;2023-06-14T02:32:04;101079.59;;;16.41;62.04
3132;BME280;62090;52.330;9.104;2023-06-14T02:34:34;101141.59;;;16.74;61.67
3132;BME280;62090;52.330;9.104;2023-06-14T02:37:07;101109.69;;;16.48;61.76
3132;BME280;62090;52.330;9.104;2023-06-14T02:39:40;101115.78;;;16.61;61.81
3132;BME280;62090;52.330;9.104;2023-06-14T02:42:10;101122.66;;;16.63;61.89
3132;BME280;62090;52.330;9.104;2023-06-14T02:44:41;101139.84;;;16.67;61.82
3132;BME280;62090;52.330;9.104;2023-06-14T02:47:12;101060.59;;;16.19;61.93
3132;BME280;62090;52.330;9.104;2023-06-14T02:49:43;101102.75;;;16.39;61.88
3132;BME280;62090;52.330;9.104;2023-06-14T02:52:14;101149.28;;;16.70;62.22
3132;BME280;62090;52.330;9.104;2023-06-14T02:54:46;101136.31;;;16.58;62.79
3132;BME280;62090;52.330;9.104;2023-06-14T02:57:17;101002.94;;;15.81;62.26
3132;BME280;62090;52.330;9.104;2023-06-14T02:59:47;101113.97;;;16.49;61.69
3132;BME280;62090;52.330;9.104;2023-06-14T03:02:17;101158.72;;;16.72;61.87
3132;BME280;62090;52.330;9.104;2023-06-14T03:04:47;101124.28;;;16.52;61.60
3132;BME280;62090;52.330;9.104;2023-06-14T03:07:19;101138.03;;;16.57;61.74
3132;BME280;62090;52.330;9.104;2023-06-14T03:09:55;101164.72;;;16.71;62.13
3132;BME280;62090;52.330;9.104;2023-06-14T03:12:25;101163.84;;;16.66;62.40
3132;BME280;62090;52.330;9.104;2023-06-14T03:14:55;101165.59;;;16.70;62.08
3132;BME280;62090;52.330;9.104;2023-06-14T03:17:32;101166.41;;;16.63;62.57
3132;BME280;62090;52.330;9.104;2023-06-14T03:20:07;101172.34;;;16.58;62.51
3132;BME280;62090;52.330;9.104;2023-06-14T03:22:38;101114.63;;;16.24;62.73
3132;BME280;62090;52.330;9.104;2023-06-14T03:25:10;101174.09;;;16.62;62.61
3132;BME280;62090;52.330;9.104;2023-06-14T03:27:42;101155.09;;;16.43;62.77
3132;BME280;62090;52.330;9.104;2023-06-14T03:30:13;101056.09;;;15.85;62.96
3132;BME280;62090;52.330;9.104;2023-06-14T03:32:46;101163.63;;;16.40;63.29
3132;BME280;62090;52.330;9.104;2023-06-14T03:35:18;101174.75;;;16.39;63.73
3132;BME280;62090;52.330;9.104;2023-06-14T03:37:48;101128.22;;;16.06;63.73
3132;BME280;62090;52.330;9.104;2023-06-14T03:40:21;101165.28;;;16.34;64.18
3132;BME280;62090;52.330;9.104;2023-06-14T03:43:00;101163.50;;;16.24;63.94
3132;BME280;62090;52.330;9.104;2023-06-14T03:45:30;101179.91;;;16.39;63.82
3132;BME280;62090;52.330;9.104;2023-06-14T03:48:00;101173.97;;;16.46;63.73
3132;BME280;62090;52.330;9.104;2023-06-14T03:50:31;101176.53;;;16.46;64.12
3132;BME280;62090;52.330;9.104;2023-06-14T03:53:00;101127.44;;;16.15;63.69
3132;BME280;62090;52.330;9.104;2023-06-14T03:55:34;101178.28;;;16.51;63.93
3132;BME280;62090;52.330;9.104;2023-06-14T03:58:25;101191.97;;;16.43;64.35
3132;BME280;62090;52.330;9.104;2023-06-14T04:00:56;101168.72;;;16.28;64.69
3132;BME280;62090;52.330;9.104;2023-06-14T04:03:26;101152.34;;;16.23;64.54
3132;BME280;62090;52.330;9.104;2023-06-14T04:05:58;101163.50;;;16.24;65.06
3132;BME280;62090;52.330;9.104;2023-06-14T04:08:29;101205.69;;;16.42;65.28
3132;BME280;62090;52.330;9.104;2023-06-14T04:11:01;101196.22;;;16.41;64.96
3132;BME280;62090;52.330;9.104;2023-06-14T04:13:31;101148.88;;;16.15;64.97
3132;BME280;62090;52.330;9.104;2023-06-14T04:16:03;101168.56;;;16.12;65.40
3132;BME280;62090;52.330;9.104;2023-06-14T04:18:35;101220.25;;;16.42;65.89
3132;BME280;62090;52.330;9.104;2023-06-14T04:21:04;101197.03;;;16.36;65.75
3132;BME280;62090;52.330;9.104;2023-06-14T04:23:35;101232.38;;;16.57;66.17
3132;BME280;62090;52.330;9.104;2023-06-14T04:26:07;101079.97;;;15.73;65.74
3132;BME280;62090;52.330;9.104;2023-06-14T04:28:39;101219.47;;;16.55;66.48
3132;BME280;62090;52.330;9.104;2023-06-14T04:31:10;101231.63;;;16.67;66.22
3132;BME280;62090;52.330;9.104;2023-06-14T04:33:39;101233.41;;;16.75;65.66
3132;BME280;62090;52.330;9.104;2023-06-14T04:36:17;101235.19;;;16.88;65.48
3132;BME280;62090;52.330;9.104;2023-06-14T04:38:48;101236.16;;;17.01;65.65
3132;BME280;62090;52.330;9.104;2023-06-14T04:41:26;101243.09;;;17.16;65.43
3132;BME280;62090;52.330;9.104;2023-06-14T04:43:57;101237.94;;;17.19;64.55
3132;BME280;62090;52.330;9.104;2023-06-14T04:46:32;101235.44;;;17.26;64.84
3132;BME280;62090;52.330;9.104;2023-06-14T04:49:21;101220.81;;;17.21;64.55
3132;BME280;62090;52.330;9.104;2023-06-14T04:51:53;101218.25;;;17.22;64.67
3132;BME280;62090;52.330;9.104;2023-06-14T04:54:30;101242.38;;;17.50;64.85
3132;BME280;62090;52.330;9.104;2023-06-14T04:57:09;101213.16;;;17.42;64.85
3132;BME280;62090;52.330;9.104;2023-06-14T04:59:42;101243.28;;;17.58;64.77
3132;BME280;62090;52.330;9.104;2023-06-14T05:02:12;101255.31;;;17.56;64.87
3132;BME280;62090;52.330;9.104;2023-06-14T05:04:42;101248.44;;;17.57;65.08
3132;BME280;62090;52.330;9.104;2023-06-14T05:07:14;101261.38;;;17.61;65.36
3132;BME280;62090;52.330;9.104;2023-06-14T05:09:44;101257.88;;;17.58;65.44
3132;BME280;62090;52.330;9.104;2023-06-14T05:12:17;101231.97;;;17.29;66.27
3132;BME280;62090;52.330;9.104;2023-06-14T05:14:48;101265.56;;;17.44;66.47
3132;BME280;62090;52.330;9.104;2023-06-14T05:17:20;101272.44;;;17.42;66.69
3132;BME280;62090;52.330;9.104;2023-06-14T05:19:50;101269.88;;;17.44;66.50
3132;BME280;62090;52.330;9.104;2023-06-14T05:22:20;101264.75;;;17.53;65.62
3132;BME280;62090;52.330;9.104;2023-06-14T05:24:49;101263.03;;;17.58;65.93
3132;BME280;62090;52.330;9.104;2023-06-14T05:27:22;101127.88;;;16.81;64.61
3132;BME280;62090;52.330;9.104;2023-06-14T05:29:53;101218.28;;;17.33;65.32
3132;BME280;62090;52.330;9.104;2023-06-14T05:32:26;101237.16;;;17.30;65.14
3132;BME280;62090;52.330;9.104;2023-06-14T05:34:56;101164.03;;;16.97;64.46
3132;BME280;62090;52.330;9.104;2023-06-14T05:37:26;101239.78;;;17.46;63.78
3132;BME280;62090;52.330;9.104;2023-06-14T05:39:57;101155.50;;;17.07;63.40
3132;BME280;62090;52.330;9.104;2023-06-14T05:42:30;101289.00;;;17.97;63.13
3132;BME280;62090;52.330;9.104;2023-06-14T05:45:00;101270.91;;;17.84;62.84
3132;BME280;62090;52.330;9.104;2023-06-14T05:47:30;101265.75;;;17.93;62.56
3132;BME280;62090;52.330;9.104;2023-06-14T05:49:59;101270.94;;;17.90;62.40
3132;BME280;62090;52.330;9.104;2023-06-14T05:52:29;101278.69;;;17.91;62.79
3132;BME280;62090;52.330;9.104;2023-06-14T05:55:00;101144.41;;;17.23;62.32
3132;BME280;62090;52.330;9.104;2023-06-14T05:57:33;101213.31;;;17.79;61.98
3132;BME280;62090;52.330;9.104;2023-06-14T06:00:03;101148.78;;;17.57;61.47
3132;BME280;62090;52.330;9.104;2023-06-14T06:02:38;101163.47;;;17.87;60.92
3132;BME280;62090;52.330;9.104;2023-06-14T06:05:08;101288.28;;;18.70;60.70
3132;BME280;62090;52.330;9.104;2023-06-14T06:07:38;101267.63;;;18.59;60.67
3132;BME280;62090;52.330;9.104;2023-06-14T06:10:11;101282.22;;;19.07;60.22
3132;BME280;62090;52.330;9.104;2023-06-14T06:12:44;101245.22;;;18.85;59.74
3132;BME280;62090;52.330;9.104;2023-06-14T06:15:15;101281.28;;;19.38;59.87
3132;BME280;62090;52.330;9.104;2023-06-14T06:17:46;101148.00;;;18.42;58.58
3132;BME280;62090;52.330;9.104;2023-06-14T06:20:23;101184.97;;;18.91;58.49
3132;BME280;62090;52.330;9.104;2023-06-14T06:22:57;101298.34;;;19.88;57.62
3132;BME280;62090;52.330;9.104;2023-06-14T06:25:27;101291.50;;;19.81;56.87
3132;BME280;62090;52.330;9.104;2023-06-14T06:28:01;101241.66;;;19.30;57.52
3132;BME280;62090;52.330;9.104;2023-06-14T06:30:31;101294.97;;;19.77;56.94
3132;BME280;62090;52.330;9.104;2023-06-14T06:33:01;101299.28;;;19.67;56.99
3132;BME280;62090;52.330;9.104;2023-06-14T06:35:31;101274.16;;;19.94;56.56
3132;BME280;62090;52.330;9.104;2023-06-14T06:38:01;101273.31;;;19.93;55.62
3132;BME280;62090;52.330;9.104;2023-06-14T06:40:31;101300.91;;;19.97;55.84
3132;BME280;62090;52.330;9.104;2023-06-14T06:43:04;101309.50;;;19.95;55.13
3132;BME280;62090;52.330;9.104;2023-06-14T06:45:41;101309.53;;;19.90;56.14
3132;BME280;62090;52.330;9.104;2023-06-14T06:48:10;101258.72;;;19.80;55.88
3132;BME280;62090;52.330;9.104;2023-06-14T06:50:40;101294.75;;;20.10;55.35
3132;BME280;62090;52.330;9.104;2023-06-14T06:53:10;101312.75;;;20.39;55.26
3132;BME280;62090;52.330;9.104;2023-06-14T06:55:46;101250.66;;;20.35;55.19
3132;BME280;62090;52.330;9.104;2023-06-14T06:58:19;101154.22;;;20.07;54.27
3132;BME280;62090;52.330;9.104;2023-06-14T07:00:49;101311.50;;;20.87;53.71
3132;BME280;62090;52.330;9.104;2023-06-14T07:03:19;101296.84;;;20.85;54.25
3132;BME280;62090;52.330;9.104;2023-06-14T07:05:49;101318.31;;;20.97;53.99
3132;BME280;62090;52.330;9.104;2023-06-14T07:08:19;101320.09;;;20.92;52.80
3132;BME280;62090;52.330;9.104;2023-06-14T07:10:48;101281.28;;;20.88;52.53
3132;BME280;62090;52.330;9.104;2023-06-14T07:13:21;101322.47;;;21.18;52.54
3132;BME280;62090;52.330;9.104;2023-06-14T07:15:54;101293.91;;;21.21;52.97
3132;BME280;62090;52.330;9.104;2023-06-14T07:18:24;101317.06;;;21.41;51.97
3132;BME280;62090;52.330;9.104;2023-06-14T07:20:54;101295.69;;;21.18;52.37
3132;BME280;62090;52.330;9.104;2023-06-14T07:23:23;101322.56;;;21.06;51.88
3132;BME280;62090;52.330;9.104;2023-06-14T07:25:53;101311.25;;;21.18;51.83
3132;BME280;62090;52.330;9.104;2023-06-14T07:28:26;101326.69;;;21.28;51.38
3132;BME280;62090;52.330;9.104;2023-06-14T07:30:56;101326.53;;;21.45;51.65
3132;BME280;62090;52.330;9.104;2023-06-14T07:33:25;101330.91;;;21.37;51.58
3132;BME280;62090;52.330;9.104;2023-06-14T07:35:55;101327.44;;;21.38;51.57
3132;BME280;62090;52.330;9.104;2023-06-14T07:38:25;101333.31;;;21.54;50.85
3132;BME280;62090;52.330;9.104;2023-06-14T07:40:55;101283.44;;;21.33;50.74
3132;BME280;62090;52.330;9.104;2023-06-14T07:43:27;101323.06;;;21.46;51.18
3132;BME280;62090;52.330;9.104;2023-06-14T07:45:57;101311.94;;;21.33;51.19
3132;BME280;62090;52.330;9.104;2023-06-14T07:48:33;101335.03;;;21.56;51.33
3132;BME280;62090;52.330;9.104;2023-06-14T07:51:03;101328.94;;;21.59;51.85
3132;BME280;62090;52.330;9.104;2023-06-14T07:53:36;101329.91;;;21.52;50.33
3132;BME280;62090;52.330;9.104;2023-06-14T07:56:07;101341.38;;;21.29;50.58
3132;BME280;62090;52.330;9.104;2023-06-14T07:58:40;101332.84;;;21.15;51.32
3132;BME280;62090;52.330;9.104;2023-06-14T08:01:10;101335.38;;;21.23;52.25
3132;BME280;62090;52.330;9.104;2023-06-14T08:03:40;101341.34;;;21.32;51.75
3132;BME280;62090;52.330;9.104;2023-06-14T08:06:10;101336.84;;;21.48;51.31
3132;BME280;62090;52.330;9.104;2023-06-14T08:08:40;101338.53;;;21.52;51.07
3132;BME280;62090;52.330;9.104;2023-06-14T08:11:10;101315.22;;;21.49;50.51
3132;BME280;62090;52.330;9.104;2023-06-14T08:13:42;101309.84;;;21.66;51.08
3132;BME280;62090;52.330;9.104;2023-06-14T08:16:12;101334.56;;;21.96;50.39
3132;BME280;62090;52.330;9.104;2023-06-14T08:18:42;101277.25;;;21.45;49.97
3132;BME280;62090;52.330;9.104;2023-06-14T08:21:12;101332.09;;;21.85;50.00
3132;BME280;62090;52.330;9.104;2023-06-14T08:23:42;101333.56;;;22.07;49.14
3132;BME280;62090;52.330;9.104;2023-06-14T08:26:12;101314.66;;;21.99;50.37
3132;BME280;62090;52.330;9.104;2023-06-14T08:28:45;101316.31;;;22.05;49.38
3132;BME280;62090;52.330;9.104;2023-06-14T08:31:15;101321.50;;;22.05;49.24
3132;BME280;62090;52.330;9.104;2023-06-14T08:33:44;101334.34;;;22.14;49.72
3132;BME280;62090;52.330;9.104;2023-06-14T08:36:14;101320.28;;;22.27;49.19
3132;BME280;62090;52.330;9.104;2023-06-14T08:38:44;101315.00;;;22.33;48.58
3132;BME280;62090;52.330;9.104;2023-06-14T08:41:20;101335.63;;;22.45;48.49
3132;BME280;62090;52.330;9.104;2023-06-14T08:43:54;101341.59;;;22.50;48.87
3132;BME280;62090;52.330;9.104;2023-06-14T08:46:25;101335.94;;;22.25;48.94
3132;BME280;62090;52.330;9.104;2023-06-14T08:48:55;101328.88;;;22.32;48.92
3132;BME280;62090;52.330;9.104;2023-06-14T08:51:27;101338.63;;;22.16;49.16
3132;BME280;62090;52.330;9.104;2023-06-14T08:54:01;101294.09;;;21.81;49.07
3132;BME280;62090;52.330;9.104;2023-06-14T08:56:31;101340.25;;;22.25;49.62
3132;BME280;62090;52.330;9.104;2023-06-14T08:59:04;101339.25;;;22.35;48.28
3132;BME280;62090;52.330;9.104;2023-06-14T09:01:36;101331.53;;;22.27;47.95
3132;BME280;62090;52.330;9.104;2023-06-14T09:04:15;101275.66;;;22.02;48.16
3132;BME280;62090;52.330;9.104;2023-06-14T09:06:44;101277.97;;;22.22;48.56
3132;BME280;62090;52.330;9.104;2023-06-14T09:09:19;101352.69;;;22.61;47.73
3132;BME280;62090;52.330;9.104;2023-06-14T09:11:50;101347.53;;;22.58;48.36
3132;BME280;62090;52.330;9.104;2023-06-14T09:14:23;101292.03;;;22.09;48.81
3132;BME280;62090;52.330;9.104;2023-06-14T09:16:54;101340.22;;;22.26;49.24
3132;BME280;62090;52.330;9.104;2023-06-14T09:19:24;101347.97;;;22.31;48.27
3132;BME280;62090;52.330;9.104;2023-06-14T09:21:54;101340.25;;;22.23;47.95
3132;BME280;62090;52.330;9.104;2023-06-14T09:24:24;101340.16;;;22.31;47.63
3132;BME280;62090;52.330;9.104;2023-06-14T09:26:54;101301.25;;;22.26;46.86
3132;BME280;62090;52.330;9.104;2023-06-14T09:29:27;101349.34;;;22.53;48.13
3132;BME280;62090;52.330;9.104;2023-06-14T09:31:58;101338.53;;;22.81;46.92
3132;BME280;62090;52.330;9.104;2023-06-14T09:34:29;101346.56;;;23.19;47.09
3132;BME280;62090;52.330;9.104;2023-06-14T09:36:58;101355.81;;;23.34;46.53
3132;BME280;62090;52.330;9.104;2023-06-14T09:39:28;101331.06;;;23.13;46.55
3132;BME280;62090;52.330;9.104;2023-06-14T09:41:58;101335.31;;;23.17;46.74
3132;BME280;62090;52.330;9.104;2023-06-14T09:44:31;101344.06;;;23.11;46.22
3132;BME280;62090;52.330;9.104;2023-06-14T09:47:03;101343.88;;;23.24;46.61
3132;BME280;62090;52.330;9.104;2023-06-14T09:49:33;101349.66;;;23.39;46.08
3132;BME280;62090;52.330;9.104;2023-06-14T09:52:03;101303.22;;;23.20;46.44
3132;BME280;62090;52.330;9.104;2023-06-14T09:54:36;101345.38;;;23.37;47.39
3132;BME280;62090;52.330;9.104;2023-06-14T09:57:10;101324.22;;;23.55;45.71
3132;BME280;62090;52.330;9.104;2023-06-14T09:59:45;101312.06;;;23.57;46.64
3132;BME280;62090;52.330;9.104;2023-06-14T10:02:22;101337.03;;;23.64;45.55
3132;BME280;62090;52.330;9.104;2023-06-14T10:04:58;101339.94;;;23.49;46.06
3132;BME280;62090;52.330;9.104;2023-06-14T10:07:37;101339.16;;;23.45;46.46
3132;BME280;62090;52.330;9.104;2023-06-14T10:10:09;101288.19;;;23.34;46.89
3132;BME280;62090;52.330;9.104;2023-06-14T10:12:39;101296.66;;;23.46;46.31
3132;BME280;62090;52.330;9.104;2023-06-14T10:15:17;101320.22;;;23.82;45.71
3132;BME280;62090;52.330;9.104;2023-06-14T10:17:51;101329.78;;;23.80;45.62
3132;BME280;62090;52.330;9.104;2023-06-14T10:20:29;101304.03;;;23.68;45.81
3132;BME280;62090;52.330;9.104;2023-06-14T10:23:06;101323.66;;;23.84;45.69
3132;BME280;62090;52.330;9.104;2023-06-14T10:25:38;101307.44;;;23.70;45.38
3132;BME280;62090;52.330;9.104;2023-06-14T10:28:18;101321.84;;;23.86;45.06
3132;BME280;62090;52.330;9.104;2023-06-14T10:31:05;101309.94;;;23.74;45.77
3132;BME280;62090;52.330;9.104;2023-06-14T10:33:36;101325.97;;;23.96;45.90
3132;BME280;62090;52.330;9.104;2023-06-14T10:36:27;101331.94;;;24.01;44.66
3132;BME280;62090;52.330;9.104;2023-06-14T10:38:59;101313.16;;;23.87;45.48
3132;BME280;62090;52.330;9.104;2023-06-14T10:41:30;101309.91;;;23.76;45.21
3132;BME280;62090;52.330;9.104;2023-06-14T10:47:07;101326.28;;;23.81;45.75
3132;BME280;62090;52.330;9.104;2023-06-14T10:49:42;101302.56;;;23.53;45.88
3132;BME280;62090;52.330;9.104;2023-06-14T10:52:14;101247.91;;;23.54;45.96
3132;BME280;62090;52.330;9.104;2023-06-14T10:55:04;101311.56;;;24.21;45.54
3132;BME280;62090;52.330;9.104;2023-06-14T10:57:37;101308.88;;;24.24;44.91
3132;BME280;62090;52.330;9.104;2023-06-14T11:00:13;101290.59;;;23.86;45.19
3132;BME280;62090;52.330;9.104;2023-06-14T11:05:51;101310.81;;;24.15;44.32
3132;BME280;62090;52.330;9.104;2023-06-14T11:08:45;101308.41;;;24.06;44.44
3132;BME280;62090;52.330;9.104;2023-06-14T11:11:22;101293.56;;;24.11;44.65
3132;BME280;62090;52.330;9.104;2023-06-14T11:13:52;101307.25;;;24.20;44.24
3132;BME280;62090;52.330;9.104;2023-06-14T11:16:25;101299.44;;;24.20;43.42
3132;BME280;62090;52.330;9.104;2023-06-14T11:19:00;101308.34;;;24.47;44.19
3132;BME280;62090;52.330;9.104;2023-06-14T11:21:32;101291.53;;;24.59;43.26
3132;BME280;62090;52.330;9.104;2023-06-14T11:24:02;101302.75;;;24.64;44.25
3132;BME280;62090;52.330;9.104;2023-06-14T11:26:32;101302.19;;;24.50;44.13
3132;BME280;62090;52.330;9.104;2023-06-14T11:29:02;101283.16;;;24.48;44.01
3132;BME280;62090;52.330;9.104;2023-06-14T11:31:32;101283.31;;;24.75;43.94
3132;BME280;62090;52.330;9.104;2023-06-14T11:34:05;101276.75;;;24.59;43.51
3132;BME280;62090;52.330;9.104;2023-06-14T11:36:35;101289.47;;;24.73;44.90
3132;BME280;62090;52.330;9.104;2023-06-14T11:39:06;101286.59;;;24.83;43.85
3132;BME280;62090;52.330;9.104;2023-06-14T11:41:38;101203.31;;;24.44;44.29
3132;BME280;62090;52.330;9.104;2023-06-14T11:44:08;101290.41;;;25.04;44.29
3132;BME280;62090;52.330;9.104;2023-06-14T11:46:38;101273.31;;;24.94;43.70
3132;BME280;62090;52.330;9.104;2023-06-14T11:49:11;101281.16;;;24.93;43.73
3132;BME280;62090;52.330;9.104;2023-06-14T11:51:42;101289.38;;;25.11;44.23
3132;BME280;62090;52.330;9.104;2023-06-14T11:54:13;101268.94;;;24.95;43.27
3132;BME280;62090;52.330;9.104;2023-06-14T11:56:42;101263.16;;;24.82;42.93
3132;BME280;62090;52.330;9.104;2023-06-14T11:59:13;101286.97;;;25.02;43.21
3132;BME280;62090;52.330;9.104;2023-06-14T12:01:43;101290.66;;;24.95;43.20
3132;BME280;62090;52.330;9.104;2023-06-14T12:04:23;101292.44;;;24.93;43.63
3132;BME280;62090;52.330;9.104;2023-06-14T12:06:53;101289.66;;;25.32;42.66
3132;BME280;62090;52.330;9.104;2023-06-14T12:09:24;101289.06;;;25.53;42.77
3132;BME280;62090;52.330;9.104;2023-06-14T12:12:00;101279.47;;;25.84;43.50
3132;BME280;62090;52.330;9.104;2023-06-14T12:14:31;101267.13;;;25.89;41.81
3132;BME280;62090;52.330;9.104;2023-06-14T12:17:04;101263.72;;;25.86;42.13
3132;BME280;62090;52.330;9.104;2023-06-14T12:19:44;101273.34;;;25.56;42.51
3132;BME280;62090;52.330;9.104;2023-06-14T12:22:14;101258.38;;;25.30;42.68
3132;BME280;62090;52.330;9.104;2023-06-14T12:24:45;101257.34;;;25.37;43.00
3132;BME280;62090;52.330;9.104;2023-06-14T12:27:16;101273.91;;;25.65;43.68
3132;BME280;62090;52.330;9.104;2023-06-14T12:29:58;101283.41;;;25.70;42.79
3132;BME280;62090;52.330;9.104;2023-06-14T12:32:30;101266.53;;;25.49;43.29
3132;BME280;62090;52.330;9.104;2023-06-14T12:35:04;101248.84;;;25.60;43.06
3132;BME280;62090;52.330;9.104;2023-06-14T12:37:34;101266.06;;;25.95;43.45
3132;BME280;62090;52.330;9.104;2023-06-14T12:40:05;101278.63;;;26.12;42.31
3132;BME280;62090;52.330;9.104;2023-06-14T12:42:35;101275.91;;;26.15;42.36
3132;BME280;62090;52.330;9.104;2023-06-14T12:45:06;101268.72;;;26.21;42.43
3132;BME280;62090;52.330;9.104;2023-06-14T12:47:36;101268.97;;;26.14;42.24
3132;BME280;62090;52.330;9.104;2023-06-14T12:50:09;101277.09;;;26.04;41.92
3132;BME280;62090;52.330;9.104;2023-06-14T12:52:39;101239.47;;;25.82;42.03
3132;BME280;62090;52.330;9.104;2023-06-14T12:55:09;101250.47;;;26.20;41.85
3132;BME280;62090;52.330;9.104;2023-06-14T12:57:39;101257.47;;;26.47;41.91
3132;BME280;62090;52.330;9.104;2023-06-14T13:00:10;101272.66;;;26.61;41.98
3132;BME280;62090;52.330;9.104;2023-06-14T13:02:40;101243.00;;;26.37;41.28
3132;BME280;62090;52.330;9.104;2023-06-14T13:05:13;101261.59;;;26.54;41.67
3132;BME280;62090;52.330;9.104;2023-06-14T13:07:43;101249.91;;;26.64;41.24
3132;BME280;62090;52.330;9.104;2023-06-14T13:10:13;101252.28;;;26.45;41.86
3132;BME280;62090;52.330;9.104;2023-06-14T13:12:43;101237.41;;;26.20;41.37
3132;BME280;62090;52.330;9.104;2023-06-14T13:15:13;101248.88;;;26.16;41.83
3132;BME280;62090;52.330;9.104;2023-06-14T13:17:43;101252.28;;;26.18;41.82
3132;BME280;62090;52.330;9.104;2023-06-14T13:20:18;101260.66;;;26.01;41.54
3132;BME280;62090;52.330;9.104;2023-06-14T13:22:48;101243.78;;;25.83;41.80
3132;BME280;62090;52.330;9.104;2023-06-14T13:25:18;101243.72;;;26.13;41.95
3132;BME280;62090;52.330;9.104;2023-06-14T13:27:49;101247.50;;;26.32;41.33
3132;BME280;62090;52.330;9.104;2023-06-14T13:30:19;101252.63;;;26.35;41.21